sensor_id;sensor_type;location;lat;lon;timestamp;P1;durP1;ratioP1;P2;durP2;ratioP2
44925;SDS011;30662;51.210;7.656;2023-02-22T00:00:10;45.72;;;24.35;;
44925;SDS011;30662;51.210;7.656;2023-02-22T00:02:44;45.83;;;25.02;;
44925;SDS011;30662;51.210;7.656;2023-02-22T00:05:13;50.33;;;25.13;;
44925;SDS011;30662;51.210;7.656;2023-02-22T00:07:45;46.85;;;23.42;;
44925;SDS011;30662;51.210;7.656;2023-02-22T00:10:12;47.25;;;24.10;;
44925;SDS011;30662;51.210;7.656;2023-02-22T00:12:45;48.92;;;24.65;;
44925;SDS011;30662;51.210;7.656;2023-02-22T00:15:16;45.60;;;22.48;;
44925;SDS011;30662;51.210;7.656;2023-02-22T00:17:42;49.28;;;23.80;;
44925;SDS011;30662;51.210;7.656;2023-02-22T00:20:10;44.95;;;22.42;;
44925;SDS011;30662;51.210;7.656;2023-02-22T00:22:40;45.25;;;24.00;;
44925;SDS011;30662;51.210;7.656;2023-02-22T00:25:07;43.35;;;22.23;;
44925;SDS011;30662;51.210;7.656;2023-02-22T00:27:33;40.20;;;21.38;;
44925;SDS011;30662;51.210;7.656;2023-02-22T00:29:59;41.70;;;21.33;;
44925;SDS011;30662;51.210;7.656;2023-02-22T00:32:25;40.42;;;21.60;;
44925;SDS011;30662;51.210;7.656;2023-02-22T00:34:52;40.90;;;21.70;;
44925;SDS011;30662;51.210;7.656;2023-02-22T00:37:19;40.33;;;20.95;;
44925;SDS011;30662;51.210;7.656;2023-02-22T00:39:46;37.47;;;20.38;;
44925;SDS011;30662;51.210;7.656;2023-02-22T00:42:13;40.25;;;20.65;;
44925;SDS011;30662;51.210;7.656;2023-02-22T00:44:40;38.67;;;19.73;;
44925;SDS011;30662;51.210;7.656;2023-02-22T00:47:06;35.38;;;20.00;;
44925;SDS011;30662;51.210;7.656;2023-02-22T00:49:33;34.80;;;19.52;;
44925;SDS011;30662;51.210;7.656;2023-02-22T00:51:59;37.70;;;20.42;;
44925;SDS011;30662;51.210;7.656;2023-02-22T00:54:25;33.95;;;18.80;;
44925;SDS011;30662;51.210;7.656;2023-02-22T00:56:51;35.45;;;18.48;;
44925;SDS011;30662;51.210;7.656;2023-02-22T00:59:17;36.58;;;18.65;;
44925;SDS011;30662;51.210;7.656;2023-02-22T01:01:43;30.58;;;16.77;;
44925;SDS011;30662;51.210;7.656;2023-02-22T01:04:09;31.40;;;15.95;;
44925;SDS011;30662;51.210;7.656;2023-02-22T01:06:35;28.27;;;15.00;;
44925;SDS011;30662;51.210;7.656;2023-02-22T01:09:01;27.67;;;15.90;;
44925;SDS011;30662;51.210;7.656;2023-02-22T01:11:28;27.13;;;15.77;;
44925;SDS011;30662;51.210;7.656;2023-02-22T01:13:55;27.63;;;15.65;;
44925;SDS011;30662;51.210;7.656;2023-02-22T01:16:22;28.08;;;15.48;;
44925;SDS011;30662;51.210;7.656;2023-02-22T01:18:48;25.30;;;16.20;;
44925;SDS011;30662;51.210;7.656;2023-02-22T01:21:14;28.13;;;15.98;;
44925;SDS011;30662;51.210;7.656;2023-02-22T01:23:42;27.63;;;15.40;;
44925;SDS011;30662;51.210;7.656;2023-02-22T01:26:09;27.13;;;16.13;;
44925;SDS011;30662;51.210;7.656;2023-02-22T01:28:36;25.20;;;15.07;;
44925;SDS011;30662;51.210;7.656;2023-02-22T01:31:02;25.27;;;16.48;;
44925;SDS011;30662;51.210;7.656;2023-02-22T01:33:29;29.70;;;16.35;;
44925;SDS011;30662;51.210;7.656;2023-02-22T01:35:55;28.08;;;16.63;;
44925;SDS011;30662;51.210;7.656;2023-02-22T01:38:22;27.63;;;16.00;;
44925;SDS011;30662;51.210;7.656;2023-02-22T01:40:48;25.70;;;16.48;;
44925;SDS011;30662;51.210;7.656;2023-02-22T01:45:53;25.83;;;14.90;;
44925;SDS011;30662;51.210;7.656;2023-02-22T01:56:33;21.60;;;13.40;;
44925;SDS011;30662;51.210;7.656;2023-02-22T01:59:04;20.85;;;14.43;;
44925;SDS011;30662;51.210;7.656;2023-02-22T02:04:09;21.73;;;14.07;;
44925;SDS011;30662;51.210;7.656;2023-02-22T02:06:50;23.83;;;15.57;;
44925;SDS011;30662;51.210;7.656;2023-02-22T02:12:08;23.95;;;15.27;;
44925;SDS011;30662;51.210;7.656;2023-02-22T02:14:36;26.35;;;16.40;;
44925;SDS011;30662;51.210;7.656;2023-02-22T02:17:07;25.13;;;15.80;;
44925;SDS011;30662;51.210;7.656;2023-02-22T02:22:27;28.13;;;18.20;;
44925;SDS011;30662;51.210;7.656;2023-02-22T02:36:39;30.45;;;17.08;;
44925;SDS011;30662;51.210;7.656;2023-02-22T02:42:02;24.30;;;16.67;;
44925;SDS011;30662;51.210;7.656;2023-02-22T02:44:35;24.48;;;16.35;;
44925;SDS011;30662;51.210;7.656;2023-02-22T02:47:27;30.92;;;16.90;;
44925;SDS011;30662;51.210;7.656;2023-02-22T02:50:08;27.25;;;17.10;;
44925;SDS011;30662;51.210;7.656;2023-02-22T02:52:39;26.45;;;16.75;;
44925;SDS011;30662;51.210;7.656;2023-02-22T02:55:06;24.92;;;16.35;;
44925;SDS011;30662;51.210;7.656;2023-02-22T02:57:36;22.80;;;15.95;;
44925;SDS011;30662;51.210;7.656;2023-02-22T03:00:04;27.17;;;16.77;;
44925;SDS011;30662;51.210;7.656;2023-02-22T03:11:18;30.42;;;18.75;;
44925;SDS011;30662;51.210;7.656;2023-02-22T03:14:28;24.92;;;17.38;;
44925;SDS011;30662;51.210;7.656;2023-02-22T03:22:15;33.20;;;18.20;;
44925;SDS011;30662;51.210;7.656;2023-02-22T03:27:51;24.85;;;15.25;;
44925;SDS011;30662;51.210;7.656;2023-02-22T03:30:25;25.15;;;15.85;;
44925;SDS011;30662;51.210;7.656;2023-02-22T03:33:03;26.05;;;16.67;;
44925;SDS011;30662;51.210;7.656;2023-02-22T03:35:37;26.80;;;17.77;;
44925;SDS011;30662;51.210;7.656;2023-02-22T03:38:08;26.48;;;17.75;;
44925;SDS011;30662;51.210;7.656;2023-02-22T03:40:41;30.17;;;19.73;;
44925;SDS011;30662;51.210;7.656;2023-02-22T03:43:12;32.40;;;20.10;;
44925;SDS011;30662;51.210;7.656;2023-02-22T03:45:43;34.17;;;19.92;;
44925;SDS011;30662;51.210;7.656;2023-02-22T03:51:00;36.83;;;21.50;;
44925;SDS011;30662;51.210;7.656;2023-02-22T03:53:29;34.38;;;21.52;;
44925;SDS011;30662;51.210;7.656;2023-02-22T03:55:57;36.35;;;22.00;;
44925;SDS011;30662;51.210;7.656;2023-02-22T03:58:24;37.45;;;21.67;;
44925;SDS011;30662;51.210;7.656;2023-02-22T04:00:55;35.58;;;22.15;;
44925;SDS011;30662;51.210;7.656;2023-02-22T04:03:21;36.25;;;23.23;;
44925;SDS011;30662;51.210;7.656;2023-02-22T04:05:48;36.60;;;22.65;;
44925;SDS011;30662;51.210;7.656;2023-02-22T04:08:15;36.08;;;23.40;;
44925;SDS011;30662;51.210;7.656;2023-02-22T04:10:41;40.10;;;24.23;;
44925;SDS011;30662;51.210;7.656;2023-02-22T04:13:07;40.25;;;24.60;;
44925;SDS011;30662;51.210;7.656;2023-02-22T04:15:34;40.13;;;24.45;;
44925;SDS011;30662;51.210;7.656;2023-02-22T04:18:00;40.83;;;24.50;;
44925;SDS011;30662;51.210;7.656;2023-02-22T04:20:26;42.47;;;25.05;;
44925;SDS011;30662;51.210;7.656;2023-02-22T04:22:52;39.53;;;23.95;;
44925;SDS011;30662;51.210;7.656;2023-02-22T04:25:20;40.00;;;23.42;;
44925;SDS011;30662;51.210;7.656;2023-02-22T04:27:47;39.90;;;23.30;;
44925;SDS011;30662;51.210;7.656;2023-02-22T04:30:15;39.90;;;24.85;;
44925;SDS011;30662;51.210;7.656;2023-02-22T04:32:43;42.70;;;25.13;;
44925;SDS011;30662;51.210;7.656;2023-02-22T04:35:09;38.80;;;23.50;;
44925;SDS011;30662;51.210;7.656;2023-02-22T04:37:35;35.90;;;23.42;;
44925;SDS011;30662;51.210;7.656;2023-02-22T04:40:01;41.67;;;25.42;;
44925;SDS011;30662;51.210;7.656;2023-02-22T04:42:35;36.83;;;23.63;;
44925;SDS011;30662;51.210;7.656;2023-02-22T04:45:03;40.03;;;23.75;;
44925;SDS011;30662;51.210;7.656;2023-02-22T04:47:32;38.92;;;23.70;;
44925;SDS011;30662;51.210;7.656;2023-02-22T04:49:59;34.85;;;22.92;;
44925;SDS011;30662;51.210;7.656;2023-02-22T04:52:25;37.08;;;22.98;;
44925;SDS011;30662;51.210;7.656;2023-02-22T04:54:52;37.17;;;21.52;;
44925;SDS011;30662;51.210;7.656;2023-02-22T04:57:18;34.78;;;21.40;;
44925;SDS011;30662;51.210;7.656;2023-02-22T04:59:44;31.40;;;20.65;;
44925;SDS011;30662;51.210;7.656;2023-02-22T05:02:10;28.50;;;17.88;;
44925;SDS011;30662;51.210;7.656;2023-02-22T05:04:37;30.35;;;17.88;;
44925;SDS011;30662;51.210;7.656;2023-02-22T05:07:03;31.80;;;18.90;;
44925;SDS011;30662;51.210;7.656;2023-02-22T05:09:29;30.65;;;19.38;;
44925;SDS011;30662;51.210;7.656;2023-02-22T05:11:55;35.13;;;20.40;;
44925;SDS011;30662;51.210;7.656;2023-02-22T05:14:21;28.52;;;15.07;;
44925;SDS011;30662;51.210;7.656;2023-02-22T05:16:47;23.02;;;15.63;;
44925;SDS011;30662;51.210;7.656;2023-02-22T05:19:14;26.50;;;15.93;;
44925;SDS011;30662;51.210;7.656;2023-02-22T05:21:40;26.63;;;16.42;;
44925;SDS011;30662;51.210;7.656;2023-02-22T05:24:06;23.75;;;14.18;;
44925;SDS011;30662;51.210;7.656;2023-02-22T05:26:32;23.02;;;13.98;;
44925;SDS011;30662;51.210;7.656;2023-02-22T05:28:58;18.83;;;13.32;;
44925;SDS011;30662;51.210;7.656;2023-02-22T05:31:23;18.30;;;12.80;;
44925;SDS011;30662;51.210;7.656;2023-02-22T05:33:49;20.65;;;12.95;;
44925;SDS011;30662;51.210;7.656;2023-02-22T05:36:15;19.98;;;14.32;;
44925;SDS011;30662;51.210;7.656;2023-02-22T05:38:41;20.52;;;12.18;;
44925;SDS011;30662;51.210;7.656;2023-02-22T05:41:10;19.33;;;12.43;;
44925;SDS011;30662;51.210;7.656;2023-02-22T05:43:37;17.40;;;11.32;;
44925;SDS011;30662;51.210;7.656;2023-02-22T05:46:03;20.85;;;10.40;;
44925;SDS011;30662;51.210;7.656;2023-02-22T05:48:29;15.70;;;10.88;;
44925;SDS011;30662;51.210;7.656;2023-02-22T05:50:56;14.30;;;10.20;;
44925;SDS011;30662;51.210;7.656;2023-02-22T05:53:22;14.65;;;10.07;;
44925;SDS011;30662;51.210;7.656;2023-02-22T05:55:49;16.90;;;10.70;;
44925;SDS011;30662;51.210;7.656;2023-02-22T05:58:15;16.55;;;10.55;;
44925;SDS011;30662;51.210;7.656;2023-02-22T06:00:41;18.00;;;12.60;;
44925;SDS011;30662;51.210;7.656;2023-02-22T06:03:08;14.63;;;11.18;;
44925;SDS011;30662;51.210;7.656;2023-02-22T06:05:35;14.95;;;10.25;;
44925;SDS011;30662;51.210;7.656;2023-02-22T06:08:02;18.67;;;10.75;;
44925;SDS011;30662;51.210;7.656;2023-02-22T06:10:28;16.80;;;11.35;;
44925;SDS011;30662;51.210;7.656;2023-02-22T06:12:54;16.80;;;11.35;;
44925;SDS011;30662;51.210;7.656;2023-02-22T06:15:21;14.05;;;10.45;;
44925;SDS011;30662;51.210;7.656;2023-02-22T06:17:48;19.42;;;11.90;;
44925;SDS011;30662;51.210;7.656;2023-02-22T06:20:16;18.63;;;11.32;;
44925;SDS011;30662;51.210;7.656;2023-02-22T06:22:47;18.23;;;11.40;;
44925;SDS011;30662;51.210;7.656;2023-02-22T06:25:18;16.10;;;10.90;;
44925;SDS011;30662;51.210;7.656;2023-02-22T06:27:49;20.23;;;12.48;;
44925;SDS011;30662;51.210;7.656;2023-02-22T06:30:15;19.65;;;12.98;;
44925;SDS011;30662;51.210;7.656;2023-02-22T06:32:44;21.73;;;12.82;;
44925;SDS011;30662;51.210;7.656;2023-02-22T06:35:09;16.35;;;12.02;;
44925;SDS011;30662;51.210;7.656;2023-02-22T06:37:35;19.60;;;12.93;;
44925;SDS011;30662;51.210;7.656;2023-02-22T06:40:04;23.77;;;12.98;;
44925;SDS011;30662;51.210;7.656;2023-02-22T06:42:31;21.40;;;12.75;;
44925;SDS011;30662;51.210;7.656;2023-02-22T06:44:57;22.00;;;14.30;;
44925;SDS011;30662;51.210;7.656;2023-02-22T06:47:23;19.30;;;13.75;;
44925;SDS011;30662;51.210;7.656;2023-02-22T06:49:52;21.17;;;14.25;;
44925;SDS011;30662;51.210;7.656;2023-02-22T06:52:19;20.70;;;12.88;;
44925;SDS011;30662;51.210;7.656;2023-02-22T06:54:45;20.90;;;13.63;;
44925;SDS011;30662;51.210;7.656;2023-02-22T06:57:11;20.08;;;13.52;;
44925;SDS011;30662;51.210;7.656;2023-02-22T06:59:37;19.00;;;12.85;;
44925;SDS011;30662;51.210;7.656;2023-02-22T07:02:03;22.80;;;13.18;;
44925;SDS011;30662;51.210;7.656;2023-02-22T07:04:29;18.75;;;12.95;;
44925;SDS011;30662;51.210;7.656;2023-02-22T07:06:55;21.08;;;15.18;;
44925;SDS011;30662;51.210;7.656;2023-02-22T07:09:20;20.88;;;13.25;;
44925;SDS011;30662;51.210;7.656;2023-02-22T07:11:46;18.88;;;12.23;;
44925;SDS011;30662;51.210;7.656;2023-02-22T07:14:12;17.77;;;12.77;;
44925;SDS011;30662;51.210;7.656;2023-02-22T07:16:40;20.02;;;12.80;;
44925;SDS011;30662;51.210;7.656;2023-02-22T07:19:06;18.50;;;12.27;;
44925;SDS011;30662;51.210;7.656;2023-02-22T07:21:32;17.65;;;12.23;;
44925;SDS011;30662;51.210;7.656;2023-02-22T07:23:58;19.00;;;13.18;;
44925;SDS011;30662;51.210;7.656;2023-02-22T07:26:24;18.95;;;11.43;;
44925;SDS011;30662;51.210;7.656;2023-02-22T07:28:51;22.05;;;14.77;;
44925;SDS011;30662;51.210;7.656;2023-02-22T07:31:17;17.52;;;12.00;;
44925;SDS011;30662;51.210;7.656;2023-02-22T07:33:46;16.02;;;11.23;;
44925;SDS011;30662;51.210;7.656;2023-02-22T07:36:13;17.75;;;11.77;;
44925;SDS011;30662;51.210;7.656;2023-02-22T07:38:44;21.65;;;11.93;;
44925;SDS011;30662;51.210;7.656;2023-02-22T07:41:11;18.02;;;11.35;;
44925;SDS011;30662;51.210;7.656;2023-02-22T07:43:37;17.40;;;11.07;;
44925;SDS011;30662;51.210;7.656;2023-02-22T07:46:03;17.90;;;12.07;;
44925;SDS011;30662;51.210;7.656;2023-02-22T07:48:30;17.45;;;11.60;;
44925;SDS011;30662;51.210;7.656;2023-02-22T07:50:56;19.92;;;14.85;;
44925;SDS011;30662;51.210;7.656;2023-02-22T07:53:27;18.55;;;12.65;;
44925;SDS011;30662;51.210;7.656;2023-02-22T07:55:58;16.15;;;11.13;;
44925;SDS011;30662;51.210;7.656;2023-02-22T07:58:26;19.27;;;10.70;;
44925;SDS011;30662;51.210;7.656;2023-02-22T08:00:53;18.38;;;11.02;;
44925;SDS011;30662;51.210;7.656;2023-02-22T08:03:20;14.77;;;10.20;;
44925;SDS011;30662;51.210;7.656;2023-02-22T08:05:50;17.77;;;10.55;;
44925;SDS011;30662;51.210;7.656;2023-02-22T08:08:17;13.65;;;9.25;;
44925;SDS011;30662;51.210;7.656;2023-02-22T08:10:45;17.60;;;11.10;;
44925;SDS011;30662;51.210;7.656;2023-02-22T08:13:11;15.63;;;9.98;;
44925;SDS011;30662;51.210;7.656;2023-02-22T08:15:38;15.57;;;9.25;;
44925;SDS011;30662;51.210;7.656;2023-02-22T08:18:09;19.80;;;10.52;;
44925;SDS011;30662;51.210;7.656;2023-02-22T08:20:39;16.17;;;9.77;;
44925;SDS011;30662;51.210;7.656;2023-02-22T08:23:06;17.45;;;9.23;;
44925;SDS011;30662;51.210;7.656;2023-02-22T08:25:33;15.02;;;9.18;;
44925;SDS011;30662;51.210;7.656;2023-02-22T08:28:22;16.27;;;9.85;;
44925;SDS011;30662;51.210;7.656;2023-02-22T08:30:48;12.32;;;8.95;;
44925;SDS011;30662;51.210;7.656;2023-02-22T08:33:14;14.07;;;8.30;;
44925;SDS011;30662;51.210;7.656;2023-02-22T08:35:45;12.15;;;7.63;;
44925;SDS011;30662;51.210;7.656;2023-02-22T08:38:17;12.80;;;7.70;;
44925;SDS011;30662;51.210;7.656;2023-02-22T08:40:44;12.32;;;7.35;;
44925;SDS011;30662;51.210;7.656;2023-02-22T08:43:10;13.10;;;7.35;;
44925;SDS011;30662;51.210;7.656;2023-02-22T08:45:37;14.07;;;8.20;;
44925;SDS011;30662;51.210;7.656;2023-02-22T08:48:04;14.10;;;8.30;;
44925;SDS011;30662;51.210;7.656;2023-02-22T08:50:30;11.70;;;7.07;;
44925;SDS011;30662;51.210;7.656;2023-02-22T08:53:01;11.60;;;7.72;;
44925;SDS011;30662;51.210;7.656;2023-02-22T08:55:29;12.10;;;7.90;;
44925;SDS011;30662;51.210;7.656;2023-02-22T08:58:00;12.13;;;8.05;;
44925;SDS011;30662;51.210;7.656;2023-02-22T09:00:28;11.00;;;7.15;;
44925;SDS011;30662;51.210;7.656;2023-02-22T09:03:01;10.80;;;7.15;;
44925;SDS011;30662;51.210;7.656;2023-02-22T09:05:28;13.43;;;8.40;;
44925;SDS011;30662;51.210;7.656;2023-02-22T09:07:56;15.32;;;8.73;;
44925;SDS011;30662;51.210;7.656;2023-02-22T09:10:25;11.40;;;7.53;;
44925;SDS011;30662;51.210;7.656;2023-02-22T09:12:54;11.20;;;7.07;;
44925;SDS011;30662;51.210;7.656;2023-02-22T09:15:20;11.88;;;8.05;;
44925;SDS011;30662;51.210;7.656;2023-02-22T09:17:47;14.30;;;7.63;;
44925;SDS011;30662;51.210;7.656;2023-02-22T09:20:13;12.13;;;6.40;;
44925;SDS011;30662;51.210;7.656;2023-02-22T09:22:43;10.52;;;7.57;;
44925;SDS011;30662;51.210;7.656;2023-02-22T09:25:10;14.40;;;7.00;;
44925;SDS011;30662;51.210;7.656;2023-02-22T09:27:42;10.15;;;6.80;;
44925;SDS011;30662;51.210;7.656;2023-02-22T09:30:15;9.88;;;7.00;;
44925;SDS011;30662;51.210;7.656;2023-02-22T09:32:49;10.82;;;6.45;;
44925;SDS011;30662;51.210;7.656;2023-02-22T09:35:25;10.77;;;6.78;;
44925;SDS011;30662;51.210;7.656;2023-02-22T09:37:52;8.15;;;6.38;;
44925;SDS011;30662;51.210;7.656;2023-02-22T09:40:22;11.45;;;6.75;;
44925;SDS011;30662;51.210;7.656;2023-02-22T09:42:53;9.63;;;6.05;;
44925;SDS011;30662;51.210;7.656;2023-02-22T09:48:13;9.65;;;6.80;;
44925;SDS011;30662;51.210;7.656;2023-02-22T09:50:47;11.80;;;6.82;;
44925;SDS011;30662;51.210;7.656;2023-02-22T09:53:19;13.90;;;7.18;;
44925;SDS011;30662;51.210;7.656;2023-02-22T09:55:55;11.25;;;7.10;;
44925;SDS011;30662;51.210;7.656;2023-02-22T09:58:32;11.23;;;6.93;;
44925;SDS011;30662;51.210;7.656;2023-02-22T10:03:57;8.52;;;6.88;;
44925;SDS011;30662;51.210;7.656;2023-02-22T10:06:28;10.23;;;6.80;;
44925;SDS011;30662;51.210;7.656;2023-02-22T10:08:57;9.45;;;6.82;;
44925;SDS011;30662;51.210;7.656;2023-02-22T10:14:32;9.98;;;7.45;;
44925;SDS011;30662;51.210;7.656;2023-02-22T10:25:27;9.63;;;6.63;;
44925;SDS011;30662;51.210;7.656;2023-02-22T10:28:01;8.65;;;6.20;;
44925;SDS011;30662;51.210;7.656;2023-02-22T10:30:46;9.80;;;6.55;;
44925;SDS011;30662;51.210;7.656;2023-02-22T10:33:21;7.15;;;5.55;;
44925;SDS011;30662;51.210;7.656;2023-02-22T10:35:52;10.18;;;6.00;;
44925;SDS011;30662;51.210;7.656;2023-02-22T10:38:23;7.22;;;5.80;;
44925;SDS011;30662;51.210;7.656;2023-02-22T10:40:55;8.60;;;6.35;;
44925;SDS011;30662;51.210;7.656;2023-02-22T10:43:22;7.63;;;6.30;;
44925;SDS011;30662;51.210;7.656;2023-02-22T10:45:51;8.10;;;5.93;;
44925;SDS011;30662;51.210;7.656;2023-02-22T10:48:20;14.73;;;6.28;;
44925;SDS011;30662;51.210;7.656;2023-02-22T10:50:48;6.85;;;5.43;;
44925;SDS011;30662;51.210;7.656;2023-02-22T10:53:17;7.10;;;5.45;;
44925;SDS011;30662;51.210;7.656;2023-02-22T10:58:45;8.05;;;4.80;;
44925;SDS011;30662;51.210;7.656;2023-02-22T11:01:17;8.95;;;4.80;;
44925;SDS011;30662;51.210;7.656;2023-02-22T11:03:55;9.02;;;5.00;;
44925;SDS011;30662;51.210;7.656;2023-02-22T11:06:42;6.40;;;4.45;;
44925;SDS011;30662;51.210;7.656;2023-02-22T11:09:14;8.55;;;4.70;;
44925;SDS011;30662;51.210;7.656;2023-02-22T11:11:49;10.07;;;5.00;;
44925;SDS011;30662;51.210;7.656;2023-02-22T11:14:31;6.60;;;4.43;;
44925;SDS011;30662;51.210;7.656;2023-02-22T11:16:58;5.63;;;4.38;;
44925;SDS011;30662;51.210;7.656;2023-02-22T11:19:26;7.05;;;4.32;;
44925;SDS011;30662;51.210;7.656;2023-02-22T11:21:55;7.30;;;4.75;;
44925;SDS011;30662;51.210;7.656;2023-02-22T11:24:23;5.97;;;4.32;;
44925;SDS011;30662;51.210;7.656;2023-02-22T11:26:57;8.15;;;5.63;;
44925;SDS011;30662;51.210;7.656;2023-02-22T11:29:26;6.95;;;3.92;;
44925;SDS011;30662;51.210;7.656;2023-02-22T11:32:14;6.63;;;3.75;;
44925;SDS011;30662;51.210;7.656;2023-02-22T11:34:46;6.32;;;3.40;;
44925;SDS011;30662;51.210;7.656;2023-02-22T11:39:47;6.30;;;3.33;;
44925;SDS011;30662;51.210;7.656;2023-02-22T11:42:25;6.78;;;3.28;;
44925;SDS011;30662;51.210;7.656;2023-02-22T11:50:52;4.85;;;2.75;;
44925;SDS011;30662;51.210;7.656;2023-02-22T11:56:25;4.55;;;2.65;;
44925;SDS011;30662;51.210;7.656;2023-02-22T12:01:52;7.63;;;3.88;;
44925;SDS011;30662;51.210;7.656;2023-02-22T12:04:49;5.63;;;3.88;;
44925;SDS011;30662;51.210;7.656;2023-02-22T12:21:11;9.50;;;5.38;;
44925;SDS011;30662;51.210;7.656;2023-02-22T12:26:16;7.78;;;4.97;;
44925;SDS011;30662;51.210;7.656;2023-02-22T12:31:31;6.80;;;4.90;;
44925;SDS011;30662;51.210;7.656;2023-02-22T12:34:07;6.20;;;4.57;;
44925;SDS011;30662;51.210;7.656;2023-02-22T12:36:52;11.23;;;5.40;;
44925;SDS011;30662;51.210;7.656;2023-02-22T12:39:29;8.75;;;5.32;;
44925;SDS011;30662;51.210;7.656;2023-02-22T12:45:11;7.45;;;5.07;;
44925;SDS011;30662;51.210;7.656;2023-02-22T12:47:44;9.38;;;5.82;;
44925;SDS011;30662;51.210;7.656;2023-02-22T12:50:22;8.88;;;5.78;;
44925;SDS011;30662;51.210;7.656;2023-02-22T12:53:12;7.90;;;5.75;;
44925;SDS011;30662;51.210;7.656;2023-02-22T12:55:49;7.57;;;5.18;;
44925;SDS011;30662;51.210;7.656;2023-02-22T13:01:06;7.57;;;4.82;;
44925;SDS011;30662;51.210;7.656;2023-02-22T13:03:39;5.90;;;4.80;;
44925;SDS011;30662;51.210;7.656;2023-02-22T13:09:17;8.75;;;4.25;;
44925;SDS011;30662;51.210;7.656;2023-02-22T13:11:57;6.75;;;4.00;;
44925;SDS011;30662;51.210;7.656;2023-02-22T13:17:41;7.35;;;4.57;;
44925;SDS011;30662;51.210;7.656;2023-02-22T13:20:15;8.00;;;4.80;;
44925;SDS011;30662;51.210;7.656;2023-02-22T13:22:55;8.52;;;5.43;;
44925;SDS011;30662;51.210;7.656;2023-02-22T13:30:40;7.30;;;4.93;;
44925;SDS011;30662;51.210;7.656;2023-02-22T13:52:13;7.75;;;3.90;;
44925;SDS011;30662;51.210;7.656;2023-02-22T13:54:43;7.82;;;3.50;;
44925;SDS011;30662;51.210;7.656;2023-02-22T13:57:22;8.75;;;3.92;;
44925;SDS011;30662;51.210;7.656;2023-02-22T14:08:37;7.05;;;4.13;;
44925;SDS011;30662;51.210;7.656;2023-02-22T14:10:59;10.18;;;5.22;;
44925;SDS011;30662;51.210;7.656;2023-02-22T14:13:27;5.50;;;4.10;;
44925;SDS011;30662;51.210;7.656;2023-02-22T14:18:40;5.90;;;4.90;;
44925;SDS011;30662;51.210;7.656;2023-02-22T14:21:09;9.15;;;4.63;;
44925;SDS011;30662;51.210;7.656;2023-02-22T14:23:36;8.52;;;5.65;;
44925;SDS011;30662;51.210;7.656;2023-02-22T14:26:14;8.32;;;5.47;;
44925;SDS011;30662;51.210;7.656;2023-02-22T14:31:16;7.28;;;5.53;;
44925;SDS011;30662;51.210;7.656;2023-02-22T14:39:24;10.32;;;6.63;;
44925;SDS011;30662;51.210;7.656;2023-02-22T14:42:23;6.40;;;4.83;;
44925;SDS011;30662;51.210;7.656;2023-02-22T14:47:38;7.32;;;5.10;;
44925;SDS011;30662;51.210;7.656;2023-02-22T14:50:26;8.52;;;5.05;;
44925;SDS011;30662;51.210;7.656;2023-02-22T14:53:06;9.20;;;5.93;;
44925;SDS011;30662;51.210;7.656;2023-02-22T14:55:46;8.50;;;5.20;;
44925;SDS011;30662;51.210;7.656;2023-02-22T14:58:21;8.32;;;5.70;;
44925;SDS011;30662;51.210;7.656;2023-02-22T15:00:51;11.10;;;5.97;;
44925;SDS011;30662;51.210;7.656;2023-02-22T15:03:26;12.38;;;5.65;;
44925;SDS011;30662;51.210;7.656;2023-02-22T15:06:05;9.63;;;5.32;;
44925;SDS011;30662;51.210;7.656;2023-02-22T15:08:39;6.53;;;5.30;;
44925;SDS011;30662;51.210;7.656;2023-02-22T15:11:20;6.63;;;4.93;;
44925;SDS011;30662;51.210;7.656;2023-02-22T15:13:52;11.10;;;5.40;;
44925;SDS011;30662;51.210;7.656;2023-02-22T15:16:20;7.03;;;5.47;;
44925;SDS011;30662;51.210;7.656;2023-02-22T15:18:57;11.38;;;5.80;;
44925;SDS011;30662;51.210;7.656;2023-02-22T15:21:26;9.05;;;5.13;;
44925;SDS011;30662;51.210;7.656;2023-02-22T15:23:53;10.65;;;5.80;;
44925;SDS011;30662;51.210;7.656;2023-02-22T15:26:26;12.38;;;5.90;;
44925;SDS011;30662;51.210;7.656;2023-02-22T15:28:59;11.43;;;6.13;;
44925;SDS011;30662;51.210;7.656;2023-02-22T15:31:30;13.63;;;6.07;;
44925;SDS011;30662;51.210;7.656;2023-02-22T15:34:18;13.32;;;7.03;;
44925;SDS011;30662;51.210;7.656;2023-02-22T15:36:50;8.73;;;5.18;;
44925;SDS011;30662;51.210;7.656;2023-02-22T15:44:35;12.68;;;6.75;;
44925;SDS011;30662;51.210;7.656;2023-02-22T15:47:04;9.25;;;6.78;;
44925;SDS011;30662;51.210;7.656;2023-02-22T15:49:31;12.20;;;7.75;;
44925;SDS011;30662;51.210;7.656;2023-02-22T15:52:35;10.32;;;7.28;;
44925;SDS011;30662;51.210;7.656;2023-02-22T15:54:56;10.45;;;7.18;;
44925;SDS011;30662;51.210;7.656;2023-02-22T15:57:22;12.05;;;7.75;;
44925;SDS011;30662;51.210;7.656;2023-02-22T15:59:51;13.25;;;7.25;;
44925;SDS011;30662;51.210;7.656;2023-02-22T16:02:33;15.40;;;10.00;;
44925;SDS011;30662;51.210;7.656;2023-02-22T16:05:06;11.82;;;8.50;;
44925;SDS011;30662;51.210;7.656;2023-02-22T16:07:37;11.45;;;8.18;;
44925;SDS011;30662;51.210;7.656;2023-02-22T16:10:23;12.55;;;7.70;;
44925;SDS011;30662;51.210;7.656;2023-02-22T16:13:06;10.00;;;7.47;;
44925;SDS011;30662;51.210;7.656;2023-02-22T16:16:32;13.45;;;8.02;;
44925;SDS011;30662;51.210;7.656;2023-02-22T16:19:14;9.30;;;7.05;;
44925;SDS011;30662;51.210;7.656;2023-02-22T16:21:51;10.13;;;6.57;;
44925;SDS011;30662;51.210;7.656;2023-02-22T16:24:25;9.57;;;7.35;;
44925;SDS011;30662;51.210;7.656;2023-02-22T16:29:37;8.70;;;6.78;;
44925;SDS011;30662;51.210;7.656;2023-02-22T16:32:03;10.45;;;7.03;;
44925;SDS011;30662;51.210;7.656;2023-02-22T16:34:29;10.52;;;6.28;;
44925;SDS011;30662;51.210;7.656;2023-02-22T16:36:55;12.90;;;7.18;;
44925;SDS011;30662;51.210;7.656;2023-02-22T16:39:25;11.93;;;6.65;;
44925;SDS011;30662;51.210;7.656;2023-02-22T16:41:56;11.47;;;7.20;;
44925;SDS011;30662;51.210;7.656;2023-02-22T16:44:24;11.10;;;7.50;;
44925;SDS011;30662;51.210;7.656;2023-02-22T16:46:51;12.45;;;7.80;;
44925;SDS011;30662;51.210;7.656;2023-02-22T16:49:18;12.90;;;6.68;;
44925;SDS011;30662;51.210;7.656;2023-02-22T16:51:57;16.00;;;7.72;;
44925;SDS011;30662;51.210;7.656;2023-02-22T16:54:28;14.52;;;7.25;;
44925;SDS011;30662;51.210;7.656;2023-02-22T16:56:58;10.98;;;6.97;;
44925;SDS011;30662;51.210;7.656;2023-02-22T16:59:26;11.57;;;8.63;;
44925;SDS011;30662;51.210;7.656;2023-02-22T17:01:53;14.73;;;9.25;;
44925;SDS011;30662;51.210;7.656;2023-02-22T17:04:21;20.83;;;8.73;;
44925;SDS011;30662;51.210;7.656;2023-02-22T17:06:49;13.02;;;7.47;;
44925;SDS011;30662;51.210;7.656;2023-02-22T17:09:15;13.85;;;8.02;;
44925;SDS011;30662;51.210;7.656;2023-02-22T17:11:41;14.00;;;8.23;;
44925;SDS011;30662;51.210;7.656;2023-02-22T17:14:09;10.75;;;8.65;;
44925;SDS011;30662;51.210;7.656;2023-02-22T17:16:51;11.82;;;9.23;;
44925;SDS011;30662;51.210;7.656;2023-02-22T17:19:19;15.15;;;9.40;;
44925;SDS011;30662;51.210;7.656;2023-02-22T17:21:48;15.07;;;9.15;;
44925;SDS011;30662;51.210;7.656;2023-02-22T17:24:19;13.45;;;8.65;;
44925;SDS011;30662;51.210;7.656;2023-02-22T17:26:47;12.68;;;9.60;;
44925;SDS011;30662;51.210;7.656;2023-02-22T17:29:14;14.30;;;9.73;;
44925;SDS011;30662;51.210;7.656;2023-02-22T17:31:42;16.60;;;9.82;;
44925;SDS011;30662;51.210;7.656;2023-02-22T17:34:08;14.73;;;10.35;;
44925;SDS011;30662;51.210;7.656;2023-02-22T17:36:34;22.50;;;15.07;;
44925;SDS011;30662;51.210;7.656;2023-02-22T17:39:03;17.50;;;12.45;;
44925;SDS011;30662;51.210;7.656;2023-02-22T17:41:30;14.48;;;10.70;;